createdAt,value
2018-09-28T00:06:34.207Z,65.50
2018-09-28T00:11:30.325Z,65.70
2018-09-28T00:13:59.339Z,65.60
2018-09-28T00:16:27.520Z,65.80
2018-09-28T00:18:55.805Z,65.90
2018-09-28T00:21:23.876Z,66.20
2018-09-28T00:23:51.944Z,65.70
2018-09-28T00:26:21.236Z,66.10
2018-09-28T00:28:49.344Z,65.80
2018-09-28T00:31:17.359Z,65.10
2018-09-28T00:33:45.461Z,64.50
2018-09-28T00:36:13.575Z,65.00
2018-09-28T00:38:41.671Z,65.40
2018-09-28T00:43:37.733Z,65.90
2018-09-28T00:48:33.863Z,66.20
2018-09-28T00:51:01.971Z,65.90
2018-09-28T00:53:30.032Z,66.00
2018-09-28T00:55:58.101Z,66.30
2018-09-28T01:00:54.320Z,66.20
2018-09-28T01:03:22.621Z,66.30
2018-09-28T01:05:50.768Z,66.40
2018-09-28T01:10:46.820Z,67.30
2018-09-28T01:13:14.942Z,67.70
2018-09-28T01:15:42.975Z,67.60
2018-09-28T01:18:10.980Z,67.50
2018-09-28T01:20:41.251Z,67.30
2018-09-28T01:23:09.345Z,67.20
2018-09-28T01:25:37.441Z,67.20
2018-09-28T01:28:05.541Z,67.40
2018-09-28T01:30:33.904Z,67.30
2018-09-28T01:33:01.937Z,67.50
2018-09-28T01:35:30.008Z,67.50
2018-09-28T01:37:58.232Z,67.40
2018-09-28T01:40:26.530Z,67.70
2018-09-28T01:47:50.663Z,68.40
2018-09-28T01:50:18.843Z,68.30
2018-09-28T01:55:14.900Z,68.20
2018-09-28T01:57:43.976Z,68.50
2018-09-28T02:00:12.255Z,68.60
2018-09-28T02:02:40.360Z,68.90
2018-09-28T02:05:08.410Z,68.80
2018-09-28T02:07:36.450Z,68.90
2018-09-28T02:12:33.978Z,69.20
2018-09-28T02:15:02.238Z,68.50
2018-09-28T02:17:30.269Z,68.50
2018-09-28T02:19:58.368Z,69.10
2018-09-28T02:22:26.409Z,69.20
2018-09-28T02:24:54.512Z,69.60
2018-09-28T02:27:22.712Z,70.00
2018-09-28T02:29:50.955Z,69.80
2018-09-28T02:32:19.057Z,69.60
2018-09-28T02:34:47.127Z,69.80
2018-09-28T02:39:43.221Z,69.40
2018-09-28T02:42:11.358Z,69.50
2018-09-28T02:44:39.359Z,69.60
2018-09-28T02:49:35.492Z,71.10
2018-09-28T02:52:03.673Z,70.50
2018-09-28T02:54:31.976Z,70.30
2018-09-28T02:57:00.122Z,70.20
2018-09-28T03:01:56.190Z,70.40
2018-09-28T03:04:24.487Z,70.30
2018-09-28T03:11:48.747Z,70.60
2018-09-28T03:14:16.836Z,70.60
2018-09-28T03:16:44.919Z,70.40
2018-09-28T03:19:13.046Z,70.70
2018-09-28T03:21:42.364Z,70.80
2018-09-28T03:24:10.670Z,70.90
2018-09-28T03:26:38.830Z,71.00
2018-09-28T03:29:07.176Z,71.30
2018-09-28T03:31:35.179Z,72.10
2018-09-28T03:34:03.251Z,72.40
2018-09-28T03:36:31.304Z,73.10
2018-09-28T03:38:59.411Z,72.60
2018-09-28T03:41:27.404Z,72.70
2018-09-28T03:46:23.631Z,72.40
2018-09-28T03:48:51.737Z,71.80
2018-09-28T03:51:19.801Z,71.60
2018-09-28T03:53:49.035Z,71.20
2018-09-28T03:56:17.171Z,71.00
2018-09-28T03:58:45.204Z,70.90
2018-09-28T04:06:09.248Z,71.40
2018-09-28T04:08:37.517Z,72.10
2018-09-28T04:11:05.535Z,72.30
2018-09-28T04:16:01.397Z,72.70
2018-09-28T04:18:29.494Z,73.00
2018-09-28T04:20:57.588Z,72.80
2018-09-28T04:25:53.691Z,71.80
2018-09-28T04:28:21.744Z,71.70
2018-09-28T04:30:49.859Z,71.20
2018-09-28T04:33:17.908Z,71.10
2018-09-28T04:38:16.479Z,71.00
2018-09-28T04:40:44.656Z,71.20
2018-09-28T04:43:12.981Z,71.10
2018-09-28T04:45:41.086Z,70.80
2018-09-28T04:50:37.147Z,69.60
2018-09-28T04:53:05.575Z,69.90
2018-09-28T04:55:33.651Z,70.40
2018-09-28T04:58:01.810Z,69.80
2018-09-28T05:02:58.228Z,70.30
2018-09-28T05:05:26.313Z,70.00
2018-09-28T05:12:50.375Z,69.80
2018-09-28T05:17:46.388Z,69.10
2018-09-28T05:20:14.688Z,69.00
2018-09-28T05:22:42.817Z,69.20
2018-09-28T05:25:11.069Z,68.80
2018-09-28T05:27:39.930Z,68.10
2018-09-28T05:30:08.183Z,67.40
2018-09-28T05:32:36.530Z,67.50
2018-09-28T05:37:32.348Z,66.80
2018-09-28T05:42:28.537Z,66.50
2018-09-28T05:44:56.540Z,66.00
2018-09-28T05:47:24.646Z,65.30
2018-09-28T05:49:52.721Z,64.50
2018-09-28T05:54:48.685Z,62.70
2018-09-28T05:57:16.929Z,61.00
2018-09-28T06:01:58.040Z,59.80
2018-09-28T06:05:34.977Z,58.50
2018-09-28T06:08:03.269Z,57.80
2018-09-28T06:10:31.323Z,57.20
2018-09-28T06:15:27.572Z,57.10
2018-09-28T06:17:55.864Z,55.70
2018-09-28T06:20:23.936Z,55.40
2018-09-28T06:22:52.019Z,53.30
2018-09-28T06:27:48.508Z,49.50
2018-09-28T06:32:44.641Z,47.80
2018-09-28T06:35:12.669Z,46.40
2018-09-28T06:37:40.795Z,45.20
2018-09-28T06:40:08.876Z,44.40
2018-09-28T06:45:05.044Z,41.20
2018-09-28T06:47:33.340Z,39.90
2018-09-28T06:50:01.446Z,39.60
2018-09-28T06:52:29.462Z,38.60
2018-09-28T06:54:57.556Z,37.30
2018-09-28T06:59:53.760Z,35.70
2018-09-28T07:04:51.680Z,34.80
2018-09-28T07:07:20.017Z,34.50
2018-09-28T07:09:48.137Z,34.40
2018-09-28T07:14:44.580Z,33.30
2018-09-28T07:17:12.660Z,32.90
2018-09-28T07:19:40.790Z,33.00
2018-09-28T07:24:36.913Z,31.60
2018-09-28T07:27:04.935Z,31.50
2018-09-28T07:29:32.980Z,31.10
2018-09-28T07:32:01.053Z,30.90
2018-09-28T07:36:57.352Z,30.60
2018-09-28T07:39:25.339Z,31.20
2018-09-28T07:41:53.363Z,31.40
2018-09-28T07:44:21.489Z,30.10
2018-09-28T07:49:18.536Z,29.10
2018-09-28T07:51:46.566Z,30.00
2018-09-28T07:56:42.700Z,29.30
2018-09-28T08:01:38.945Z,29.00
2018-09-28T08:04:07.417Z,28.20
2018-09-28T08:06:35.440Z,27.40
2018-09-28T08:09:05.295Z,27.50
2018-09-28T08:11:33.589Z,27.60
2018-09-28T08:14:03.468Z,27.50
2018-09-28T08:16:31.579Z,28.20
2018-09-28T08:18:59.724Z,28.40
2018-09-28T08:21:28.069Z,28.40
2018-09-28T08:23:56.072Z,28.70
2018-09-28T08:26:24.184Z,28.40
2018-09-28T08:31:20.336Z,28.10
2018-09-28T08:33:48.385Z,27.60
2018-09-28T08:36:16.589Z,27.30
2018-09-28T08:38:44.844Z,27.40
2018-09-28T08:41:12.896Z,27.50
2018-09-28T08:43:41.078Z,26.80
2018-09-28T08:48:37.135Z,26.80
2018-09-28T08:51:05.485Z,26.70
2018-09-28T08:53:33.563Z,26.90
2018-09-28T08:56:01.655Z,27.00
2018-09-28T08:58:29.888Z,27.10
2018-09-28T09:03:25.848Z,26.00
2018-09-28T09:05:53.837Z,26.60
2018-09-28T09:08:23.000Z,26.30
2018-09-28T09:10:51.350Z,26.10
2018-09-28T09:13:21.105Z,26.30
2018-09-28T09:15:51.140Z,25.60
2018-09-28T09:18:19.193Z,25.40
2018-09-28T09:20:47.268Z,25.00
2018-09-28T09:23:15.265Z,24.90
2018-09-28T09:25:43.485Z,25.00
2018-09-28T09:28:11.801Z,25.50
2018-09-28T09:30:39.896Z,25.80
2018-09-28T09:40:33.105Z,24.00
2018-09-28T09:43:01.148Z,24.90
2018-09-28T09:47:57.380Z,23.90
2018-09-28T09:52:53.402Z,25.00
2018-09-28T09:55:21.537Z,24.70
2018-09-28T09:57:49.647Z,24.50
2018-09-28T10:00:23.176Z,23.40
2018-09-28T10:02:56.572Z,22.10
2018-09-28T10:05:24.844Z,21.60
2018-09-28T10:10:21.006Z,21.80
2018-09-28T10:12:49.327Z,20.30
2018-09-28T10:15:17.741Z,20.20
2018-09-28T10:27:13.283Z,21.80
2018-09-28T10:32:09.405Z,21.40
2018-09-28T10:37:06.529Z,20.90
2018-09-28T10:39:38.233Z,20.30
2018-09-28T10:42:06.398Z,20.30
2018-09-28T10:47:05.604Z,20.50
2018-09-28T10:49:34.837Z,20.80
2018-09-28T10:54:30.920Z,22.00
2018-09-28T10:56:58.998Z,21.80
2018-09-28T10:59:27.093Z,22.60
2018-09-28T11:01:55.184Z,22.90
2018-09-28T11:04:24.421Z,23.10
2018-09-28T11:06:52.529Z,23.80
2018-09-28T11:09:21.424Z,23.50
2018-09-28T11:11:49.659Z,23.10
2018-09-28T11:19:17.791Z,24.40
2018-09-28T11:21:45.854Z,24.20
2018-09-28T11:26:41.984Z,23.00
2018-09-28T11:29:10.080Z,23.60
2018-09-28T11:34:06.285Z,23.80
2018-09-28T11:36:34.313Z,23.40
2018-09-28T11:39:05.271Z,23.30
2018-09-28T11:44:01.455Z,22.50
2018-09-28T11:46:29.667Z,22.80
2018-09-28T12:08:23.038Z,23.80
2018-09-28T12:10:51.375Z,24.40
2018-09-28T12:15:47.268Z,23.70
2018-09-28T12:23:11.304Z,23.10
2018-09-28T12:25:39.401Z,23.20
2018-09-28T12:28:07.465Z,23.10
2018-09-28T12:30:35.551Z,23.50
2018-09-28T12:35:31.741Z,22.90
2018-09-28T12:40:27.879Z,23.30
2018-09-28T12:42:56.185Z,23.30
2018-09-28T12:45:24.323Z,22.70
2018-09-28T12:50:20.441Z,23.50
2018-09-28T12:52:48.489Z,23.70
2018-09-28T12:55:16.565Z,23.90
2018-09-28T13:00:12.824Z,23.80
2018-09-28T13:02:41.157Z,23.50
2018-09-28T13:05:09.459Z,23.50
2018-09-28T13:12:33.663Z,22.50
2018-09-28T13:15:01.885Z,22.60
2018-09-28T13:17:29.845Z,22.90
2018-09-28T13:19:57.902Z,22.90
2018-09-28T13:22:25.937Z,23.20
2018-09-28T13:24:54.408Z,23.40
2018-09-28T13:27:22.763Z,22.80
2018-09-28T13:29:50.985Z,22.70
2018-09-28T13:37:15.953Z,23.20
2018-09-28T13:39:44.073Z,23.30
2018-09-28T13:42:12.456Z,23.40
2018-09-28T13:47:08.600Z,22.80
2018-09-28T13:49:37.860Z,22.80
2018-09-28T13:52:06.156Z,22.30
2018-09-28T13:54:34.339Z,22.60
2018-09-28T13:57:02.375Z,22.30
2018-09-28T13:59:30.471Z,22.60
2018-09-28T14:04:28.462Z,22.80
2018-09-28T14:09:24.546Z,23.00
2018-09-28T14:11:52.634Z,23.10
2018-09-28T14:14:20.700Z,22.80
2018-09-28T14:19:16.692Z,23.20
2018-09-28T14:21:44.886Z,23.20
2018-09-28T14:24:12.976Z,23.30
2018-09-28T14:26:41.170Z,23.30
2018-09-28T14:31:37.272Z,23.20
2018-09-28T14:34:05.719Z,23.00
2018-09-28T14:39:04.125Z,23.20
2018-09-28T14:41:32.277Z,22.50
2018-09-28T14:44:00.688Z,21.70
2018-09-28T14:46:29.004Z,22.00
2018-09-28T14:48:57.542Z,22.20
2018-09-28T14:53:53.536Z,22.20
2018-09-28T14:56:21.613Z,22.30
2018-09-28T15:01:17.756Z,22.50
2018-09-28T15:06:13.962Z,22.40
2018-09-28T15:08:42.277Z,22.10
2018-09-28T15:11:10.280Z,22.20
2018-09-28T15:13:38.590Z,22.40
2018-09-28T15:16:06.847Z,22.90
2018-09-28T15:18:35.481Z,22.90
2018-09-28T15:21:03.812Z,22.90
2018-09-28T15:25:59.893Z,23.20
2018-09-28T15:28:28.112Z,23.20
2018-09-28T15:33:24.165Z,23.10
2018-09-28T15:35:52.277Z,23.90
2018-09-28T15:40:48.398Z,24.00
2018-09-28T15:43:17.709Z,24.20
2018-09-28T15:45:45.752Z,24.50
2018-09-28T15:48:13.809Z,24.70
2018-09-28T15:50:41.931Z,25.10
2018-09-28T15:53:11.292Z,25.70
2018-09-28T15:58:08.452Z,26.20
2018-09-28T16:00:37.624Z,26.40
2018-09-28T16:03:06.017Z,26.60
2018-09-28T16:05:34.372Z,27.00
2018-09-28T16:08:02.426Z,27.00
2018-09-28T16:10:30.508Z,27.10
2018-09-28T16:12:58.534Z,27.40
2018-09-28T16:15:26.670Z,27.90
2018-09-28T16:17:54.995Z,28.30
2018-09-28T16:20:23.037Z,28.40
2018-09-28T16:22:51.159Z,28.60
2018-09-28T16:25:19.199Z,28.80
2018-09-28T16:27:47.292Z,29.00
2018-09-28T16:30:15.344Z,29.40
2018-09-28T16:32:43.435Z,29.60
2018-09-28T16:37:40.555Z,29.40
2018-09-28T16:40:08.849Z,29.50
2018-09-28T16:42:36.929Z,29.90
2018-09-28T16:52:29.263Z,30.70
2018-09-28T16:54:57.619Z,30.60
2018-09-28T16:57:25.642Z,30.80
2018-09-28T17:04:49.929Z,31.40
2018-09-28T17:07:17.940Z,31.80
2018-09-28T17:12:14.380Z,32.50
2018-09-28T17:17:10.624Z,33.40
2018-09-28T17:19:38.928Z,33.80
2018-09-28T17:22:06.996Z,34.40
2018-09-28T17:24:35.095Z,35.10
2018-09-28T17:29:31.540Z,34.70
2018-09-28T17:31:59.556Z,35.00
2018-09-28T17:36:55.440Z,35.90
2018-09-28T17:44:19.600Z,36.60
2018-09-28T17:46:47.733Z,36.20
2018-09-28T17:49:15.776Z,36.30
2018-09-28T17:56:39.858Z,36.00
2018-09-28T17:59:08.588Z,36.00
2018-09-28T18:01:36.803Z,36.20
2018-09-28T18:06:33.076Z,36.10
2018-09-28T18:09:01.278Z,35.70
2018-09-28T18:18:55.399Z,36.30
2018-09-28T18:21:23.529Z,36.10
2018-09-28T18:23:51.907Z,36.60
2018-09-28T18:28:47.978Z,37.00
2018-09-28T18:31:16.365Z,37.30
2018-09-28T18:36:12.558Z,37.60
2018-09-28T18:38:40.605Z,37.80
2018-09-28T18:41:08.878Z,37.80
2018-09-28T18:43:37.002Z,37.80
2018-09-28T18:46:05.188Z,37.90
2018-09-28T18:48:33.554Z,38.10
2018-09-28T18:51:01.571Z,38.10
2018-09-28T18:53:29.648Z,38.20
2018-09-28T18:55:57.765Z,38.50
2018-09-28T18:58:26.063Z,38.60
2018-09-28T19:00:54.152Z,38.80
2018-09-28T19:03:22.214Z,38.80
2018-09-28T19:05:50.387Z,38.90
2018-09-28T19:08:18.421Z,39.00
2018-09-28T19:10:46.724Z,38.90
2018-09-28T19:13:14.818Z,39.00
2018-09-28T19:15:42.900Z,39.20
2018-09-28T19:23:07.738Z,39.40
2018-09-28T19:25:35.785Z,39.50
2018-09-28T19:28:04.182Z,39.40
2018-09-28T19:30:32.339Z,39.40
2018-09-28T19:35:30.509Z,39.20
2018-09-28T19:37:58.573Z,39.10
2018-09-28T19:40:26.624Z,39.20
2018-09-28T19:45:22.760Z,39.70
2018-09-28T19:47:50.861Z,39.90
2018-09-28T19:50:18.948Z,40.00
2018-09-28T19:52:47.078Z,40.00
2018-09-28T19:55:15.410Z,40.20
2018-09-28T20:00:12.470Z,40.40
2018-09-28T20:07:36.734Z,40.70
2018-09-28T20:17:28.987Z,40.80
2018-09-28T20:19:57.287Z,40.90
2018-09-28T20:22:25.411Z,41.30
2018-09-28T20:27:25.597Z,41.50
2018-09-28T20:29:53.876Z,41.80
2018-09-28T20:32:21.981Z,41.80
2018-09-28T20:37:18.136Z,42.10
2018-09-28T20:39:46.173Z,42.10
2018-09-28T20:42:14.370Z,42.20
2018-09-28T20:44:42.629Z,42.10
2018-09-28T20:47:10.704Z,42.00
2018-09-28T20:54:34.956Z,42.20
2018-09-28T20:59:33.320Z,42.00
2018-09-28T21:02:01.640Z,41.90
2018-09-28T21:04:29.639Z,42.10
2018-09-28T21:06:57.775Z,42.20
2018-09-28T21:09:25.789Z,42.20
2018-09-28T21:11:53.921Z,42.30
2018-09-28T21:16:50.079Z,42.60
2018-09-28T21:19:18.108Z,42.70
2018-09-28T21:21:47.377Z,42.70
2018-09-28T21:24:15.485Z,42.60
2018-09-28T21:26:43.513Z,42.80
2018-09-28T21:29:11.634Z,42.90
2018-09-28T21:31:39.677Z,43.40
2018-09-28T21:34:07.817Z,43.60
2018-09-28T21:36:36.112Z,43.70
2018-09-28T21:39:05.824Z,43.50
2018-09-28T21:41:34.124Z,43.40
2018-09-28T21:44:02.191Z,43.50
2018-09-28T21:46:30.300Z,43.70
2018-09-28T21:48:58.335Z,43.90
2018-09-28T21:51:26.508Z,43.50
2018-09-28T21:58:50.680Z,43.90
2018-09-28T22:01:19.551Z,44.10
2018-09-28T22:03:49.064Z,44.10
2018-09-28T22:08:45.321Z,43.90
2018-09-28T22:11:13.889Z,43.40
2018-09-28T22:13:42.161Z,43.60
2018-09-28T22:21:06.057Z,43.90
2018-09-28T22:23:34.477Z,44.50
2018-09-28T22:26:02.893Z,44.10
2018-09-28T22:28:31.164Z,44.10
2018-09-28T22:30:59.225Z,44.10
2018-09-28T22:33:27.326Z,44.20
2018-09-28T22:35:55.436Z,44.30
2018-09-28T22:43:22.080Z,44.90
2018-09-28T22:45:50.112Z,45.00
2018-09-28T22:48:18.223Z,45.10
2018-09-28T22:50:46.609Z,45.00
2018-09-28T22:53:14.883Z,45.20
2018-09-28T22:55:42.998Z,44.70
2018-09-28T22:58:11.146Z,44.70
2018-09-28T23:03:07.219Z,45.40
2018-09-28T23:05:35.370Z,45.40
2018-09-28T23:08:03.381Z,45.70
2018-09-28T23:10:31.454Z,45.90
2018-09-28T23:12:59.488Z,46.10
2018-09-28T23:15:27.576Z,46.30
2018-09-28T23:17:55.755Z,46.40
2018-09-28T23:20:24.038Z,46.90
2018-09-28T23:22:52.097Z,47.40
2018-09-28T23:25:20.268Z,47.40
2018-09-28T23:32:44.546Z,47.50
2018-09-28T23:40:08.609Z,47.30
2018-09-28T23:42:36.585Z,47.60
2018-09-28T23:47:32.828Z,48.10
2018-09-28T23:50:00.884Z,48.10
2018-09-28T23:52:29.034Z,48.40
2018-09-28T23:57:25.099Z,49.20
2018-09-28T23:59:53.179Z,49.50
